createdAt,value
2018-08-25T00:00:31.313Z,12.43
2018-08-25T00:01:35.842Z,11.30
2018-08-25T00:02:40.011Z,13.25
2018-08-25T00:03:44.280Z,12.75
2018-08-25T00:04:48.453Z,12.63
2018-08-25T00:05:52.783Z,11.78
2018-08-25T00:06:57.061Z,12.78
2018-08-25T00:08:01.475Z,12.65
2018-08-25T00:09:07.973Z,13.18
2018-08-25T00:10:12.131Z,12.75
2018-08-25T00:11:16.367Z,12.50
2018-08-25T00:12:20.891Z,13.32
2018-08-25T00:13:25.199Z,12.28
2018-08-25T00:14:29.580Z,11.43
2018-08-25T00:15:33.808Z,11.65
2018-08-25T00:16:38.090Z,13.03
2018-08-25T00:17:42.273Z,11.78
2018-08-25T00:18:46.629Z,11.75
2018-08-25T00:19:51.189Z,11.40
2018-08-25T00:20:55.460Z,12.45
2018-08-25T00:22:00.441Z,12.75
2018-08-25T00:23:04.524Z,12.47
2018-08-25T00:24:08.774Z,12.75
2018-08-25T00:25:12.938Z,11.63
2018-08-25T00:26:17.034Z,10.95
2018-08-25T00:27:21.277Z,13.18
2018-08-25T00:28:25.481Z,11.90
2018-08-25T00:29:30.073Z,12.23
2018-08-25T00:30:39.704Z,11.35
2018-08-25T00:31:43.946Z,11.90
2018-08-25T00:32:48.362Z,11.57
2018-08-25T00:33:54.125Z,12.25
2018-08-25T00:34:58.513Z,12.73
2018-08-25T00:36:02.530Z,10.90
2018-08-25T00:37:07.543Z,12.35
2018-08-25T00:38:11.814Z,12.18
2018-08-25T00:39:16.128Z,12.65
2018-08-25T00:40:20.389Z,12.47
2018-08-25T00:41:24.592Z,12.93
2018-08-25T00:42:28.952Z,11.55
2018-08-25T00:43:33.188Z,11.15
2018-08-25T00:44:37.835Z,12.18
2018-08-25T00:45:41.985Z,13.05
2018-08-25T00:46:46.383Z,12.55
2018-08-25T00:47:50.762Z,11.85
2018-08-25T00:48:55.103Z,12.55
2018-08-25T00:49:59.474Z,12.65
2018-08-25T00:51:03.767Z,11.00
2018-08-25T00:52:07.977Z,13.00
2018-08-25T00:53:12.381Z,11.68
2018-08-25T00:54:16.552Z,11.60
2018-08-25T00:55:20.807Z,12.88
2018-08-25T00:56:25.185Z,12.73
2018-08-25T00:57:29.551Z,12.18
2018-08-25T00:58:33.740Z,12.73
2018-08-25T00:59:37.814Z,11.25
2018-08-25T01:00:42.377Z,12.37
2018-08-25T01:01:46.544Z,12.55
2018-08-25T01:02:50.885Z,12.15
2018-08-25T01:03:55.210Z,12.13
2018-08-25T01:04:59.584Z,11.88
2018-08-25T01:06:03.890Z,12.40
2018-08-25T01:07:08.330Z,12.30
2018-08-25T01:08:13.192Z,12.13
2018-08-25T01:09:17.773Z,12.15
2018-08-25T01:10:22.745Z,12.18
2018-08-25T01:11:27.446Z,11.57
2018-08-25T01:12:31.667Z,12.20
2018-08-25T01:13:35.961Z,11.63
2018-08-25T01:14:40.205Z,12.15
2018-08-25T01:15:44.789Z,12.33
2018-08-25T01:16:49.036Z,10.75
2018-08-25T01:17:53.214Z,12.13
2018-08-25T01:18:57.589Z,12.70
2018-08-25T01:20:02.165Z,12.58
2018-08-25T01:21:06.319Z,11.57
2018-08-25T01:22:10.596Z,12.90
2018-08-25T01:23:14.808Z,11.55
2018-08-25T01:24:18.977Z,12.73
2018-08-25T01:25:23.294Z,12.00
2018-08-25T01:26:27.901Z,13.93
2018-08-25T01:27:32.850Z,13.88
2018-08-25T01:28:37.114Z,12.82
2018-08-25T01:29:41.290Z,14.18
2018-08-25T01:30:45.580Z,12.75
2018-08-25T01:31:49.848Z,12.90
2018-08-25T01:32:53.928Z,12.47
2018-08-25T01:33:59.614Z,13.08
2018-08-25T01:35:04.012Z,12.88
2018-08-25T01:36:08.144Z,13.90
2018-08-25T01:37:12.296Z,12.23
2018-08-25T01:38:16.711Z,12.05
2018-08-25T01:39:20.936Z,13.72
2018-08-25T01:40:25.072Z,12.33
2018-08-25T01:41:29.311Z,12.05
2018-08-25T01:42:34.084Z,12.98
2018-08-25T01:43:38.475Z,13.45
2018-08-25T01:44:42.598Z,13.60
2018-08-25T01:45:46.882Z,13.05
2018-08-25T01:46:51.185Z,13.65
2018-08-25T01:47:55.608Z,13.78
2018-08-25T01:48:59.768Z,12.53
2018-08-25T01:50:04.152Z,12.73
2018-08-25T01:51:08.446Z,11.75
2018-08-25T01:52:12.806Z,13.43
2018-08-25T01:53:17.013Z,12.40
2018-08-25T01:54:21.580Z,12.63
2018-08-25T01:55:25.914Z,10.82
2018-08-25T01:56:30.022Z,13.78
2018-08-25T01:57:34.479Z,12.50
2018-08-25T01:58:38.955Z,13.75
2018-08-25T01:59:43.312Z,12.00
2018-08-25T02:00:47.879Z,12.23
2018-08-25T02:01:52.294Z,12.90
2018-08-25T02:02:56.423Z,12.10
2018-08-25T02:04:00.538Z,12.18
2018-08-25T02:05:05.021Z,12.45
2018-08-25T02:06:09.233Z,12.53
2018-08-25T02:07:13.578Z,13.38
2018-08-25T02:08:18.208Z,13.08
2018-08-25T02:09:22.654Z,12.45
2018-08-25T02:10:26.783Z,12.78
2018-08-25T02:11:31.201Z,12.55
2018-08-25T02:12:35.419Z,12.50
2018-08-25T02:13:39.647Z,12.70
2018-08-25T02:14:43.759Z,12.43
2018-08-25T02:15:47.919Z,13.13
2018-08-25T02:16:52.226Z,12.70
2018-08-25T02:17:56.518Z,12.28
2018-08-25T02:19:01.213Z,12.23
2018-08-25T02:20:05.832Z,11.85
2018-08-25T02:21:10.112Z,12.23
2018-08-25T02:22:14.329Z,11.35
2018-08-25T02:23:18.642Z,10.65
2018-08-25T02:24:23.452Z,12.10
2018-08-25T02:25:27.790Z,11.35
2018-08-25T02:26:32.249Z,12.55
2018-08-25T02:27:36.543Z,11.95
2018-08-25T02:28:40.733Z,11.93
2018-08-25T02:29:45.005Z,12.60
2018-08-25T02:30:49.577Z,12.33
2018-08-25T02:31:53.983Z,11.48
2018-08-25T02:32:58.509Z,11.83
2018-08-25T02:34:02.789Z,12.20
2018-08-25T02:35:07.013Z,11.53
2018-08-25T02:36:11.165Z,11.40
2018-08-25T02:37:15.346Z,12.60
2018-08-25T02:38:19.629Z,10.58
2018-08-25T02:39:23.867Z,12.25
2018-08-25T02:40:28.205Z,11.05
2018-08-25T02:41:32.604Z,10.53
2018-08-25T02:42:36.771Z,10.85
2018-08-25T02:43:41.073Z,10.28
2018-08-25T02:44:45.365Z,9.70
2018-08-25T02:45:49.879Z,9.58
2018-08-25T02:46:54.234Z,10.53
2018-08-25T02:47:58.446Z,9.98
2018-08-25T02:49:03.044Z,10.18
2018-08-25T02:50:07.371Z,10.05
2018-08-25T02:51:11.782Z,10.93
2018-08-25T02:52:16.284Z,9.68
2018-08-25T02:53:20.586Z,10.03
2018-08-25T02:54:24.890Z,10.40
2018-08-25T02:55:29.382Z,11.30
2018-08-25T02:56:33.817Z,10.05
2018-08-25T02:57:38.157Z,10.10
2018-08-25T02:58:42.721Z,10.72
2018-08-25T02:59:47.106Z,11.18
2018-08-25T03:00:51.476Z,10.90
2018-08-25T03:01:55.806Z,10.30
2018-08-25T03:02:59.959Z,9.65
2018-08-25T03:04:04.096Z,10.45
2018-08-25T03:05:08.149Z,9.48
2018-08-25T03:06:12.438Z,9.20
2018-08-25T03:07:16.765Z,9.75
2018-08-25T03:08:20.930Z,10.00
2018-08-25T03:09:25.367Z,10.80
2018-08-25T03:10:29.480Z,10.00
2018-08-25T03:11:34.064Z,10.90
2018-08-25T03:12:38.262Z,10.15
2018-08-25T03:13:42.653Z,9.73
2018-08-25T03:14:47.013Z,9.13
2018-08-25T03:15:51.164Z,10.00
2018-08-25T03:16:55.314Z,9.93
2018-08-25T03:17:59.511Z,9.23
2018-08-25T03:19:04.185Z,10.25
2018-08-25T03:20:08.609Z,11.10
2018-08-25T03:21:13.128Z,10.20
2018-08-25T03:22:17.294Z,9.83
2018-08-25T03:23:21.602Z,9.50
2018-08-25T03:24:26.091Z,10.93
2018-08-25T03:25:30.428Z,10.70
2018-08-25T03:26:34.583Z,9.93
2018-08-25T03:27:38.912Z,10.23
2018-08-25T03:28:43.312Z,10.48
2018-08-25T03:29:47.505Z,10.75
2018-08-25T03:30:51.873Z,11.10
2018-08-25T03:31:56.136Z,10.70
2018-08-25T03:33:00.485Z,11.40
2018-08-25T03:34:05.069Z,9.98
2018-08-25T03:35:09.234Z,11.18
2018-08-25T03:36:13.480Z,10.58
2018-08-25T03:37:17.985Z,11.25
2018-08-25T03:38:22.163Z,9.65
2018-08-25T03:39:26.359Z,10.25
2018-08-25T03:40:30.804Z,11.25
2018-08-25T03:41:35.068Z,11.20
2018-08-25T03:42:39.491Z,11.83
2018-08-25T03:43:44.111Z,10.45
2018-08-25T03:44:48.396Z,9.40
2018-08-25T03:45:52.646Z,10.32
2018-08-25T03:46:56.917Z,11.55
2018-08-25T03:48:01.399Z,11.10
2018-08-25T03:49:06.086Z,12.00
2018-08-25T03:50:10.355Z,10.25
2018-08-25T03:51:14.546Z,10.03
2018-08-25T03:52:18.936Z,9.90
2018-08-25T03:53:23.297Z,12.18
2018-08-25T03:54:27.486Z,11.75
2018-08-25T03:55:32.034Z,11.03
2018-08-25T03:56:36.354Z,9.95
2018-08-25T03:57:40.626Z,11.15
2018-08-25T03:58:45.116Z,10.72
2018-08-25T03:59:49.793Z,11.80
2018-08-25T04:00:54.267Z,11.00
2018-08-25T04:01:58.770Z,11.30
2018-08-25T04:03:02.924Z,11.70
2018-08-25T04:04:07.242Z,10.35
2018-08-25T04:05:11.397Z,10.72
2018-08-25T04:06:15.725Z,11.85
2018-08-25T04:07:20.466Z,9.78
2018-08-25T04:08:24.724Z,10.88
2018-08-25T04:09:29.263Z,9.43
2018-08-25T04:10:33.921Z,10.05
2018-08-25T04:11:38.017Z,11.15
2018-08-25T04:12:42.709Z,10.95
2018-08-25T04:13:46.758Z,11.28
2018-08-25T04:14:51.315Z,11.80
2018-08-25T04:15:55.889Z,11.25
2018-08-25T04:17:00.295Z,10.35
2018-08-25T04:18:04.629Z,11.63
2018-08-25T04:19:12.963Z,9.85
2018-08-25T04:20:17.646Z,10.20
2018-08-25T04:21:22.160Z,10.25
2018-08-25T04:22:26.758Z,10.80
2018-08-25T04:23:31.226Z,10.25
2018-08-25T04:24:35.938Z,9.78
2018-08-25T04:25:40.288Z,9.43
2018-08-25T04:26:44.679Z,10.45
2018-08-25T04:27:48.998Z,11.28
2018-08-25T04:28:53.322Z,9.50
2018-08-25T04:29:58.004Z,10.85
2018-08-25T04:31:02.263Z,9.83
2018-08-25T04:32:06.678Z,9.88
2018-08-25T04:33:11.158Z,9.95
2018-08-25T04:34:15.553Z,11.28
2018-08-25T04:35:19.998Z,11.10
2018-08-25T04:36:24.387Z,9.83
2018-08-25T04:37:28.603Z,8.93
2018-08-25T04:38:32.829Z,9.20
2018-08-25T04:39:37.216Z,10.25
2018-08-25T04:40:42.056Z,9.30
2018-08-25T04:41:46.748Z,9.70
2018-08-25T04:42:51.267Z,9.90
2018-08-25T04:43:55.785Z,10.13
2018-08-25T04:45:00.472Z,10.08
2018-08-25T04:46:05.073Z,9.40
2018-08-25T04:47:09.410Z,10.20
2018-08-25T04:48:13.623Z,9.40
2018-08-25T04:49:18.013Z,10.23
2018-08-25T04:50:22.222Z,9.85
2018-08-25T04:51:26.679Z,10.20
2018-08-25T04:52:31.025Z,9.53
2018-08-25T04:53:35.261Z,9.13
2018-08-25T04:54:39.387Z,8.18
2018-08-25T04:55:43.661Z,9.13
2018-08-25T04:56:48.011Z,9.08
2018-08-25T04:57:52.640Z,9.23
2018-08-25T04:58:57.122Z,7.92
2018-08-25T05:00:01.684Z,9.03
2018-08-25T05:01:06.102Z,9.25
2018-08-25T05:02:10.761Z,8.60
2018-08-25T05:03:15.292Z,9.35
2018-08-25T05:04:20.043Z,9.05
2018-08-25T05:05:24.406Z,8.63
2018-08-25T05:06:28.871Z,8.88
2018-08-25T05:07:33.284Z,10.15
2018-08-25T05:08:37.590Z,8.73
2018-08-25T05:09:42.051Z,8.30
2018-08-25T05:10:46.660Z,8.70
2018-08-25T05:11:50.842Z,8.65
2018-08-25T05:12:55.206Z,9.35
2018-08-25T05:13:59.458Z,9.20
2018-08-25T05:15:03.844Z,9.63
2018-08-25T05:16:08.291Z,8.90
2018-08-25T05:17:12.422Z,9.90
2018-08-25T05:18:16.931Z,8.25
2018-08-25T05:19:21.325Z,9.80
2018-08-25T05:20:25.611Z,8.58
2018-08-25T05:21:30.078Z,9.63
2018-08-25T05:22:34.400Z,9.03
2018-08-25T05:23:38.821Z,9.15
2018-08-25T05:24:43.135Z,7.92
2018-08-25T05:25:47.340Z,8.25
2018-08-25T05:26:51.646Z,8.58
2018-08-25T05:27:56.030Z,8.95
2018-08-25T05:29:00.369Z,8.30
2018-08-25T05:30:05.235Z,8.60
2018-08-25T05:31:09.990Z,8.45
2018-08-25T05:32:14.335Z,8.15
2018-08-25T05:33:18.824Z,8.35
2018-08-25T05:34:23.019Z,8.80
2018-08-25T05:35:27.345Z,7.83
2018-08-25T05:36:32.069Z,9.08
2018-08-25T05:37:36.177Z,8.50
2018-08-25T05:38:40.518Z,8.30
2018-08-25T05:39:44.838Z,8.35
2018-08-25T05:40:49.306Z,8.75
2018-08-25T05:41:54.610Z,8.78
2018-08-25T05:42:58.977Z,7.35
2018-08-25T05:44:03.325Z,7.80
2018-08-25T05:45:07.856Z,7.60
2018-08-25T05:46:12.186Z,9.30
2018-08-25T05:47:16.682Z,8.73
2018-08-25T05:48:21.243Z,8.40
2018-08-25T05:49:25.422Z,8.80
2018-08-25T05:50:29.805Z,7.80
2018-08-25T05:51:34.004Z,8.25
2018-08-25T05:52:38.683Z,8.38
2018-08-25T05:53:42.881Z,8.60
2018-08-25T05:54:47.223Z,8.28
2018-08-25T05:55:51.499Z,9.18
2018-08-25T05:56:55.878Z,9.05
2018-08-25T05:58:00.240Z,7.30
2018-08-25T05:59:04.631Z,8.45
2018-08-25T06:00:08.729Z,8.10
2018-08-25T06:01:13.109Z,8.60
2018-08-25T06:02:17.243Z,9.15
2018-08-25T06:03:21.650Z,7.90
2018-08-25T06:04:26.040Z,8.50
2018-08-25T06:05:30.562Z,7.87
2018-08-25T06:06:34.788Z,7.87
2018-08-25T06:07:39.145Z,7.60
2018-08-25T06:08:43.642Z,8.15
2018-08-25T06:09:47.873Z,7.92
2018-08-25T06:10:52.390Z,7.22
2018-08-25T06:11:56.881Z,8.08
2018-08-25T06:13:01.563Z,8.75
2018-08-25T06:14:06.052Z,8.30
2018-08-25T06:15:10.821Z,8.20
2018-08-25T06:16:15.140Z,7.95
2018-08-25T06:17:19.753Z,7.17
2018-08-25T06:18:24.061Z,7.95
2018-08-25T06:19:28.409Z,7.78
2018-08-25T06:20:32.640Z,7.25
2018-08-25T06:21:36.802Z,8.08
2018-08-25T06:22:41.408Z,8.73
2018-08-25T06:23:45.768Z,7.75
2018-08-25T06:24:50.067Z,8.58
2018-08-25T06:25:54.180Z,8.63
2018-08-25T06:26:58.386Z,7.45
2018-08-25T06:28:03.070Z,7.87
2018-08-25T06:29:07.262Z,7.70
2018-08-25T06:30:11.425Z,8.05
2018-08-25T06:31:15.689Z,7.72
2018-08-25T06:32:19.986Z,7.80
2018-08-25T06:33:24.180Z,7.03
2018-08-25T06:34:28.391Z,7.62
2018-08-25T06:35:32.647Z,8.20
2018-08-25T06:36:36.802Z,6.92
2018-08-25T06:37:40.955Z,7.20
2018-08-25T06:38:45.301Z,8.48
2018-08-25T06:39:49.563Z,7.35
2018-08-25T06:40:53.895Z,7.35
2018-08-25T06:41:58.163Z,6.90
2018-08-25T06:43:02.584Z,7.20
2018-08-25T06:44:06.918Z,8.18
2018-08-25T06:45:11.023Z,8.98
2018-08-25T06:46:15.145Z,7.80
2018-08-25T06:47:19.584Z,9.93
2018-08-25T06:48:23.767Z,7.20
2018-08-25T06:49:28.160Z,7.83
2018-08-25T06:50:32.382Z,7.80
2018-08-25T06:51:36.777Z,7.40
2018-08-25T06:52:41.224Z,7.12
2018-08-25T06:53:45.282Z,7.65
2018-08-25T06:54:49.721Z,8.48
2018-08-25T06:55:53.929Z,7.30
2018-08-25T06:56:58.420Z,7.50
2018-08-25T06:58:02.604Z,7.22
2018-08-25T06:59:06.692Z,7.90
2018-08-25T07:00:10.908Z,7.40
2018-08-25T07:01:15.154Z,7.35
2018-08-25T07:02:19.549Z,7.30
2018-08-25T07:03:23.576Z,7.35
2018-08-25T07:04:27.754Z,7.78
2018-08-25T07:05:32.134Z,8.13
2018-08-25T07:06:36.339Z,7.87
2018-08-25T07:07:40.733Z,7.80
2018-08-25T07:08:44.840Z,6.95
2018-08-25T07:09:49.315Z,7.95
2018-08-25T07:10:53.542Z,7.03
2018-08-25T07:11:58.088Z,8.33
2018-08-25T07:13:02.555Z,6.70
2018-08-25T07:14:06.872Z,8.55
2018-08-25T07:15:11.182Z,8.73
2018-08-25T07:16:15.517Z,7.58
2018-08-25T07:17:19.976Z,7.60
2018-08-25T07:18:24.565Z,6.53
2018-08-25T07:19:28.753Z,7.25
2018-08-25T07:20:33.197Z,7.92
2018-08-25T07:21:37.451Z,6.28
2018-08-25T07:22:42.680Z,9.35
2018-08-25T07:23:46.753Z,7.80
2018-08-25T07:24:51.067Z,6.90
2018-08-25T07:25:55.535Z,6.60
2018-08-25T07:26:59.743Z,6.50
2018-08-25T07:28:04.038Z,6.85
2018-08-25T07:29:08.682Z,6.42
2018-08-25T07:30:13.041Z,7.25
2018-08-25T07:31:17.707Z,6.65
2018-08-25T07:32:22.169Z,6.90
2018-08-25T07:33:26.186Z,7.33
2018-08-25T07:34:30.510Z,6.65
2018-08-25T07:35:34.611Z,6.92
2018-08-25T07:36:38.842Z,6.97
2018-08-25T07:37:43.149Z,7.62
2018-08-25T07:38:47.259Z,6.90
2018-08-25T07:39:51.378Z,5.72
2018-08-25T07:40:55.575Z,6.20
2018-08-25T07:41:59.677Z,6.50
2018-08-25T07:43:03.993Z,7.53
2018-08-25T07:44:08.528Z,6.30
2018-08-25T07:45:13.004Z,6.40
2018-08-25T07:46:17.214Z,6.47
2018-08-25T07:47:21.374Z,6.60
2018-08-25T07:48:25.560Z,6.85
2018-08-25T07:49:29.894Z,6.87
2018-08-25T07:50:34.221Z,6.22
2018-08-25T07:51:38.650Z,7.08
2018-08-25T07:52:42.814Z,7.53
2018-08-25T07:53:46.993Z,6.45
2018-08-25T07:54:51.417Z,7.20
2018-08-25T07:55:55.916Z,6.75
2018-08-25T07:57:00.384Z,6.80
2018-08-25T07:58:04.820Z,6.42
2018-08-25T07:59:09.123Z,5.80
2018-08-25T08:00:13.708Z,6.08
2018-08-25T08:01:18.027Z,7.65
2018-08-25T08:02:22.219Z,6.75
2018-08-25T08:03:26.728Z,6.55
2018-08-25T08:04:30.893Z,7.10
2018-08-25T08:05:35.132Z,8.08
2018-08-25T08:06:39.696Z,6.53
2018-08-25T08:07:43.980Z,6.22
2018-08-25T08:08:48.114Z,6.30
2018-08-25T08:09:52.373Z,5.45
2018-08-25T08:10:56.913Z,6.22
2018-08-25T08:12:01.420Z,5.22
2018-08-25T08:13:05.549Z,4.90
2018-08-25T08:14:09.826Z,6.80
2018-08-25T08:15:14.338Z,6.35
2018-08-25T08:16:18.753Z,5.70
2018-08-25T08:17:22.894Z,6.65
2018-08-25T08:18:27.115Z,5.67
2018-08-25T08:19:31.468Z,6.15
2018-08-25T08:20:35.832Z,5.90
2018-08-25T08:21:40.180Z,7.10
2018-08-25T08:22:44.701Z,6.05
2018-08-25T08:23:49.110Z,6.67
2018-08-25T08:24:53.264Z,7.22
2018-08-25T08:25:57.602Z,7.58
2018-08-25T08:27:01.920Z,7.10
2018-08-25T08:28:07.159Z,6.67
2018-08-25T08:29:11.478Z,7.50
2018-08-25T08:30:15.822Z,7.20
2018-08-25T08:31:19.918Z,7.33
2018-08-25T08:32:24.025Z,7.28
2018-08-25T08:33:28.203Z,7.05
2018-08-25T08:34:32.417Z,6.28
2018-08-25T08:35:37.186Z,7.75
2018-08-25T08:36:41.831Z,6.60
2018-08-25T08:37:46.168Z,7.30
2018-08-25T08:38:50.463Z,7.17
2018-08-25T08:39:55.075Z,7.08
2018-08-25T08:40:59.258Z,7.33
2018-08-25T08:42:03.596Z,7.35
2018-08-25T08:43:07.834Z,7.05
2018-08-25T08:44:11.991Z,7.15
2018-08-25T08:45:16.623Z,7.10
2018-08-25T08:46:26.462Z,7.05
2018-08-25T08:47:30.792Z,7.03
2018-08-25T08:48:34.982Z,6.00
2018-08-25T08:49:46.595Z,6.70
2018-08-25T08:50:43.673Z,6.95
2018-08-25T08:51:48.164Z,7.00
2018-08-25T08:52:52.217Z,6.60
2018-08-25T08:53:56.640Z,5.22
2018-08-25T08:55:00.848Z,5.60
2018-08-25T08:56:05.186Z,5.35
2018-08-25T08:57:09.497Z,5.60
2018-08-25T08:58:13.851Z,5.58
2018-08-25T08:59:17.926Z,6.12
2018-08-25T09:00:22.058Z,4.97
2018-08-25T09:01:26.350Z,5.60
2018-08-25T09:02:30.741Z,6.00
2018-08-25T09:03:34.944Z,5.10
2018-08-25T09:04:39.351Z,4.67
2018-08-25T09:05:43.533Z,5.28
2018-08-25T09:06:48.150Z,5.28
2018-08-25T09:07:52.362Z,5.83
2018-08-25T09:08:56.993Z,5.15
2018-08-25T09:10:01.316Z,6.25
2018-08-25T09:11:05.794Z,5.50
2018-08-25T09:12:10.076Z,5.15
2018-08-25T09:13:14.322Z,5.15
2018-08-25T09:14:18.753Z,5.83
2018-08-25T09:15:23.063Z,5.30
2018-08-25T09:16:27.560Z,5.45
2018-08-25T09:17:32.333Z,5.15
2018-08-25T09:18:36.578Z,5.87
2018-08-25T09:19:40.996Z,5.90
2018-08-25T09:20:45.437Z,5.83
2018-08-25T09:21:49.841Z,4.90
2018-08-25T09:22:54.121Z,4.97
2018-08-25T09:23:58.322Z,4.85
2018-08-25T09:25:02.559Z,5.05
2018-08-25T09:26:06.658Z,4.75
2018-08-25T09:27:11.177Z,4.95
2018-08-25T09:28:15.404Z,5.12
2018-08-25T09:29:19.660Z,4.70
2018-08-25T09:30:23.838Z,4.62
2018-08-25T09:31:28.222Z,4.90
2018-08-25T09:32:32.610Z,4.85
2018-08-25T09:33:36.893Z,5.25
2018-08-25T09:34:41.310Z,5.15
2018-08-25T09:35:45.711Z,4.30
2018-08-25T09:36:49.961Z,4.60
2018-08-25T09:37:54.169Z,4.95
2018-08-25T09:38:58.513Z,5.05
2018-08-25T09:40:03.325Z,4.20
2018-08-25T09:41:07.519Z,4.95
2018-08-25T09:42:11.862Z,4.85
2018-08-25T09:43:16.319Z,4.40
2018-08-25T09:44:20.465Z,5.53
2018-08-25T09:45:24.637Z,5.17
2018-08-25T09:46:28.959Z,3.75
2018-08-25T09:47:33.632Z,4.22
2018-08-25T09:48:38.161Z,3.75
2018-08-25T09:49:42.501Z,2.95
2018-08-25T09:50:46.828Z,3.22
2018-08-25T09:51:51.334Z,3.35
2018-08-25T09:52:55.483Z,3.62
2018-08-25T09:53:59.824Z,3.33
2018-08-25T09:55:04.495Z,3.77
2018-08-25T09:56:08.821Z,3.35
2018-08-25T09:57:13.227Z,3.27
2018-08-25T09:58:17.276Z,2.98
2018-08-25T09:59:21.504Z,3.62
2018-08-25T10:00:25.878Z,3.40
2018-08-25T10:01:31.258Z,2.75
2018-08-25T10:02:35.501Z,3.60
2018-08-25T10:03:40.001Z,3.42
2018-08-25T10:04:44.199Z,3.30
2018-08-25T10:05:48.651Z,2.90
2018-08-25T10:06:52.753Z,2.60
2018-08-25T10:07:56.985Z,3.15
2018-08-25T10:09:01.175Z,3.40
2018-08-25T10:10:06.383Z,3.15
2018-08-25T10:11:10.637Z,3.17
2018-08-25T10:12:15.108Z,3.00
2018-08-25T10:13:19.515Z,3.17
2018-08-25T10:14:24.004Z,2.77
2018-08-25T10:15:28.306Z,3.40
2018-08-25T10:16:32.483Z,2.90
2018-08-25T10:17:36.582Z,4.03
2018-08-25T10:18:40.887Z,3.25
2018-08-25T10:19:45.216Z,2.70
2018-08-25T10:20:49.559Z,3.70
2018-08-25T10:21:53.951Z,3.75
2018-08-25T10:22:58.415Z,3.52
2018-08-25T10:24:02.537Z,5.25
2018-08-25T10:25:06.657Z,3.20
2018-08-25T10:26:10.978Z,3.55
2018-08-25T10:27:15.228Z,3.40
2018-08-25T10:28:19.576Z,3.10
2018-08-25T10:29:23.685Z,3.20
2018-08-25T10:30:28.133Z,4.08
2018-08-25T10:31:32.289Z,3.42
2018-08-25T10:32:36.543Z,2.95
2018-08-25T10:33:40.916Z,3.40
2018-08-25T10:34:45.014Z,3.67
2018-08-25T10:35:49.576Z,3.62
2018-08-25T10:36:53.657Z,4.17
2018-08-25T10:37:58.288Z,3.25
2018-08-25T10:39:02.915Z,3.47
2018-08-25T10:40:07.178Z,3.70
2018-08-25T10:41:11.413Z,3.00
2018-08-25T10:42:15.557Z,2.95
2018-08-25T10:43:19.711Z,3.55
2018-08-25T10:44:24.118Z,3.40
2018-08-25T10:45:28.238Z,3.20
2018-08-25T10:46:32.438Z,5.25
2018-08-25T10:47:36.631Z,4.72
2018-08-25T10:48:41.117Z,4.45
2018-08-25T10:49:45.580Z,3.27
2018-08-25T10:50:50.086Z,3.77
2018-08-25T10:51:55.082Z,3.80
2018-08-25T10:52:59.463Z,3.75
2018-08-25T10:54:03.913Z,2.98
2018-08-25T10:55:08.613Z,4.05
2018-08-25T10:56:13.077Z,3.58
2018-08-25T10:57:17.261Z,3.27
2018-08-25T10:58:21.429Z,3.30
2018-08-25T10:59:25.581Z,3.37
2018-08-25T11:00:29.805Z,4.03
2018-08-25T11:01:34.350Z,3.72
2018-08-25T11:02:38.664Z,3.72
2018-08-25T11:03:42.777Z,4.00
2018-08-25T11:04:47.005Z,3.70
2018-08-25T11:05:51.326Z,4.25
2018-08-25T11:06:55.399Z,3.70
2018-08-25T11:07:59.921Z,3.42
2018-08-25T11:09:06.122Z,3.70
2018-08-25T11:10:10.432Z,3.20
2018-08-25T11:11:15.069Z,3.33
2018-08-25T11:12:19.657Z,3.40
2018-08-25T11:13:23.938Z,4.12
2018-08-25T11:14:28.102Z,3.52
2018-08-25T11:15:32.711Z,3.45
2018-08-25T11:16:37.112Z,4.00
2018-08-25T11:17:41.427Z,4.62
2018-08-25T11:18:46.036Z,3.40
2018-08-25T11:19:50.320Z,4.17
2018-08-25T11:20:54.727Z,3.40
2018-08-25T11:21:58.931Z,3.17
2018-08-25T11:23:03.024Z,4.22
2018-08-25T11:24:07.485Z,4.37
2018-08-25T11:25:11.652Z,3.98
2018-08-25T11:26:15.894Z,3.75
2018-08-25T11:27:20.379Z,3.60
2018-08-25T11:28:24.511Z,4.17
2018-08-25T11:29:29.028Z,3.90
2018-08-25T11:30:35.684Z,3.67
2018-08-25T11:31:40.073Z,4.42
2018-08-25T11:32:44.416Z,3.80
2018-08-25T11:33:49.163Z,3.67
2018-08-25T11:34:53.496Z,4.10
2018-08-25T11:35:57.838Z,3.20
2018-08-25T11:37:02.158Z,3.20
2018-08-25T11:38:06.464Z,3.62
2018-08-25T11:39:11.493Z,3.40
2018-08-25T11:40:15.735Z,4.00
2018-08-25T11:41:19.927Z,3.90
2018-08-25T11:42:23.986Z,4.33
2018-08-25T11:43:28.274Z,3.90
2018-08-25T11:44:32.969Z,4.33
2018-08-25T11:45:37.069Z,8.90
2018-08-25T11:46:41.641Z,14.93
2018-08-25T11:47:46.276Z,4.25
2018-08-25T11:48:50.520Z,3.90
2018-08-25T11:49:54.865Z,4.70
2018-08-25T11:50:59.211Z,4.30
2018-08-25T11:52:03.523Z,3.87
2018-08-25T11:53:08.072Z,3.72
2018-08-25T11:54:12.824Z,4.17
2018-08-25T11:55:16.818Z,4.50
2018-08-25T11:56:21.345Z,4.55
2018-08-25T11:57:25.541Z,4.25
2018-08-25T11:58:29.842Z,4.10
2018-08-25T11:59:34.173Z,4.35
2018-08-25T12:00:38.520Z,4.45
2018-08-25T12:01:42.825Z,4.42
2018-08-25T12:02:46.968Z,4.92
2018-08-25T12:03:51.463Z,4.47
2018-08-25T12:04:55.670Z,3.90
2018-08-25T12:05:59.746Z,3.80
2018-08-25T12:07:04.022Z,4.70
2018-08-25T12:08:08.400Z,4.85
2018-08-25T12:09:13.315Z,4.47
2018-08-25T12:10:17.635Z,4.10
2018-08-25T12:11:21.690Z,3.85
2018-08-25T12:12:25.962Z,3.75
2018-08-25T12:13:30.449Z,4.47
2018-08-25T12:14:34.561Z,4.75
2018-08-25T12:15:39.082Z,4.12
2018-08-25T12:16:43.238Z,4.25
2018-08-25T12:17:47.642Z,3.90
2018-08-25T12:18:51.888Z,4.12
2018-08-25T12:19:56.337Z,4.25
2018-08-25T12:21:01.007Z,4.30
2018-08-25T12:22:05.345Z,4.55
2018-08-25T12:23:10.826Z,4.35
2018-08-25T12:24:15.093Z,3.60
2018-08-25T12:25:19.602Z,3.95
2018-08-25T12:26:23.996Z,3.55
2018-08-25T12:27:28.347Z,4.40
2018-08-25T12:28:32.517Z,3.50
2018-08-25T12:29:38.894Z,4.62
2018-08-25T12:30:43.701Z,3.20
2018-08-25T12:31:47.979Z,4.37
2018-08-25T12:32:52.204Z,3.50
2018-08-25T12:33:56.457Z,3.08
2018-08-25T12:35:00.627Z,3.30
2018-08-25T12:36:04.869Z,3.15
2018-08-25T12:37:09.184Z,3.40
2018-08-25T12:38:13.485Z,4.70
2018-08-25T12:39:17.739Z,3.92
2018-08-25T12:40:21.869Z,4.40
2018-08-25T12:41:26.574Z,4.25
2018-08-25T12:42:30.732Z,4.90
2018-08-25T12:43:35.269Z,3.80
2018-08-25T12:44:39.790Z,4.85
2018-08-25T12:45:43.980Z,4.28
2018-08-25T12:46:48.154Z,5.20
2018-08-25T12:47:52.330Z,5.12
2018-08-25T12:48:56.817Z,4.83
2018-08-25T12:50:00.941Z,5.37
2018-08-25T12:51:05.278Z,4.45
2018-08-25T12:52:09.530Z,5.08
2018-08-25T12:53:13.876Z,4.90
2018-08-25T12:54:18.162Z,5.42
2018-08-25T12:55:22.470Z,4.97
2018-08-25T12:56:26.769Z,5.10
2018-08-25T12:57:31.066Z,4.30
2018-08-25T12:58:35.128Z,4.55
2018-08-25T12:59:39.446Z,4.37
2018-08-25T13:00:43.783Z,4.58
2018-08-25T13:01:48.334Z,4.95
2018-08-25T13:02:52.768Z,4.08
2018-08-25T13:03:57.167Z,4.70
2018-08-25T13:05:01.382Z,4.33
2018-08-25T13:06:05.503Z,5.53
2018-08-25T13:07:09.807Z,3.90
2018-08-25T13:08:14.215Z,4.28
2018-08-25T13:09:18.882Z,5.20
2018-08-25T13:10:23.298Z,4.75
2018-08-25T13:11:27.867Z,4.95
2018-08-25T13:12:32.063Z,4.70
2018-08-25T13:13:36.307Z,5.40
2018-08-25T13:14:40.717Z,4.53
2018-08-25T13:15:45.136Z,4.62
2018-08-25T13:16:49.331Z,4.00
2018-08-25T13:17:53.636Z,4.10
2018-08-25T13:18:58.126Z,4.30
2018-08-25T13:20:02.372Z,4.50
2018-08-25T13:21:06.884Z,4.20
2018-08-25T13:22:11.195Z,4.58
2018-08-25T13:23:15.335Z,4.15
2018-08-25T13:24:19.659Z,4.80
2018-08-25T13:25:24.061Z,5.45
2018-08-25T13:26:28.284Z,5.25
2018-08-25T13:27:32.686Z,4.05
2018-08-25T13:28:37.346Z,4.53
2018-08-25T13:29:41.644Z,4.60
2018-08-25T13:30:45.993Z,4.10
2018-08-25T13:31:50.111Z,4.67
2018-08-25T13:32:54.456Z,4.53
2018-08-25T13:33:58.773Z,4.50
2018-08-25T13:35:03.169Z,4.70
2018-08-25T13:36:07.489Z,4.10
2018-08-25T13:37:11.729Z,6.65
2018-08-25T13:38:16.317Z,4.70
2018-08-25T13:39:20.600Z,4.90
2018-08-25T13:40:25.094Z,4.75
2018-08-25T13:41:29.170Z,5.62
2018-08-25T13:42:33.551Z,5.95
2018-08-25T13:43:37.704Z,5.60
2018-08-25T13:44:42.244Z,5.58
2018-08-25T13:45:46.584Z,6.08
2018-08-25T13:46:50.690Z,5.03
2018-08-25T13:47:54.844Z,5.97
2018-08-25T13:48:59.217Z,5.83
2018-08-25T13:50:03.359Z,5.25
2018-08-25T13:51:07.664Z,5.80
2018-08-25T13:52:12.034Z,5.53
2018-08-25T13:53:16.583Z,5.30
2018-08-25T13:54:20.947Z,6.03
2018-08-25T13:55:25.227Z,5.20
2018-08-25T13:56:30.271Z,5.20
2018-08-25T13:57:34.466Z,5.33
2018-08-25T13:58:38.702Z,6.03
2018-08-25T13:59:43.081Z,5.50
2018-08-25T14:00:47.283Z,6.28
2018-08-25T14:01:51.579Z,5.70
2018-08-25T14:02:56.197Z,5.25
2018-08-25T14:04:00.660Z,5.60
2018-08-25T14:05:04.961Z,5.75
2018-08-25T14:06:10.137Z,5.50
2018-08-25T14:07:14.415Z,5.35
2018-08-25T14:08:18.809Z,5.60